Time;durP1;ratioP1;P1;durP2;ratioP2;P2;SDS_P1;SDS_P2;PMS_P1;PMS_P2;Temp;Humidity;BMP_temperature;BMP_pressure;BME280_temperature;BME280_humidity;BME280_pressure;Samples;Min_cycle;Max_cycle;Signal;HPM_P1;HPM_P2
2022/03/01 00:01:37;;;;;;;5.63;4.00;;;0.10;99.90;;;;;;5033155;28;20226;-88
2022/03/01 00:04:06;;;;;;;4.43;3.67;;;0.00;99.90;;;;;;5032958;28;20206;-89
2022/03/01 00:06:34;;;;;;;5.07;3.70;;;-0.10;99.90;;;;;;5033185;28;20206;-88
2022/03/01 00:09:03;;;;;;;8.53;4.53;;;-0.20;99.90;;;;;;5032503;28;20206;-89
2022/03/01 00:11:35;;;;;;;3.57;3.27;;;-0.30;99.90;;;;;;5032185;28;20218;-88
2022/03/01 00:14:04;;;;;;;5.00;3.63;;;-0.30;99.90;;;;;;5032635;28;20203;-89
2022/03/01 00:16:33;;;;;;;3.60;3.10;;;-0.40;99.90;;;;;;5032429;28;20234;-89
2022/03/01 00:19:01;;;;;;;4.83;3.80;;;-0.30;99.90;;;;;;5032283;28;20283;-88
2022/03/01 00:21:33;;;;;;;5.67;3.53;;;-0.40;99.90;;;;;;5032807;28;20227;-88
2022/03/01 00:24:01;;;;;;;3.20;2.90;;;-0.40;99.90;;;;;;5032114;28;20198;-88
2022/03/01 00:26:29;;;;;;;4.43;3.07;;;-0.40;99.90;;;;;;5031925;28;20225;-89
2022/03/01 00:28:59;;;;;;;4.23;3.43;;;-0.40;99.90;;;;;;5032289;28;20215;-88
2022/03/01 00:31:28;;;;;;;4.43;3.50;;;-0.40;99.90;;;;;;5031380;28;20230;-88
2022/03/01 00:33:56;;;;;;;6.37;4.53;;;-0.50;99.90;;;;;;5032215;28;20211;-88
2022/03/01 00:36:25;;;;;;;3.97;3.53;;;-0.50;99.90;;;;;;5032237;28;20250;-88
2022/03/01 00:38:53;;;;;;;4.67;3.77;;;-0.50;99.90;;;;;;5031956;28;20230;-89
2022/03/01 00:41:21;;;;;;;6.30;3.83;;;-0.50;99.90;;;;;;5032503;28;20227;-89
2022/03/01 00:43:50;;;;;;;3.90;3.50;;;-0.50;99.90;;;;;;5032105;28;20206;-88
2022/03/01 00:46:20;;;;;;;4.97;3.47;;;-0.50;99.90;;;;;;5031846;28;20215;-88
2022/03/01 00:48:48;;;;;;;5.93;3.73;;;-0.50;99.90;;;;;;5032068;28;20202;-89
2022/03/01 00:51:16;;;;;;;4.10;3.70;;;-0.50;99.90;;;;;;5031777;28;20234;-89
2022/03/01 00:53:45;;;;;;;2.73;2.53;;;-0.50;99.90;;;;;;5032828;28;20207;-88
2022/03/01 00:56:13;;;;;;;4.07;2.77;;;-0.50;99.90;;;;;;5032368;28;20265;-88
2022/03/01 00:58:42;;;;;;;4.40;3.87;;;-0.50;99.90;;;;;;5032065;28;20272;-89
2022/03/01 01:01:10;;;;;;;3.63;3.10;;;-0.60;99.90;;;;;;5032374;28;20222;-88
2022/03/01 01:03:41;;;;;;;4.13;3.67;;;-0.60;99.90;;;;;;5032054;28;20206;-88
2022/03/01 01:06:09;;;;;;;4.20;3.43;;;-0.60;99.90;;;;;;5032216;28;20272;-88
2022/03/01 01:08:38;;;;;;;3.60;3.20;;;-0.60;99.90;;;;;;5032426;28;20210;-89
2022/03/01 01:11:06;;;;;;;3.33;3.03;;;-0.60;99.90;;;;;;5032318;28;20226;-88
2022/03/01 01:13:35;;;;;;;4.20;3.67;;;-0.60;99.90;;;;;;5032254;28;20202;-88
2022/03/01 01:16:04;;;;;;;20.73;3.63;;;-0.60;99.90;;;;;;5032258;28;20223;-89
2022/03/01 01:18:32;;;;;;;4.20;3.43;;;-0.60;99.90;;;;;;5032241;28;20264;-89
2022/03/01 01:21:02;;;;;;;4.80;3.27;;;-0.60;99.90;;;;;;5032477;28;20241;-88
2022/03/01 01:23:32;;;;;;;4.30;3.47;;;-0.60;99.90;;;;;;5032065;28;20203;-89
2022/03/01 01:26:00;;;;;;;4.80;4.30;;;-0.60;99.90;;;;;;5032178;28;20256;-88
2022/03/01 01:28:29;;;;;;;7.73;3.73;;;-0.60;99.90;;;;;;5032581;28;20210;-89
2022/03/01 01:30:57;;;;;;;3.87;3.47;;;-0.60;99.90;;;;;;5031356;28;20237;-89
2022/03/01 01:33:26;;;;;;;4.07;3.10;;;-0.70;99.90;;;;;;5032343;28;20241;-89
2022/03/01 01:35:54;;;;;;;5.37;3.83;;;-0.80;99.90;;;;;;5032189;28;20218;-89
2022/03/01 01:38:24;;;;;;;3.90;3.57;;;-0.80;99.90;;;;;;5032180;28;20206;-88
2022/03/01 01:40:53;;;;;;;6.63;4.17;;;-0.80;99.90;;;;;;5031970;28;20249;-88
2022/03/01 01:43:21;;;;;;;5.00;3.87;;;-0.80;99.90;;;;;;5033508;28;20206;-89
2022/03/01 01:45:50;;;;;;;4.77;3.67;;;-0.80;99.90;;;;;;5035759;28;20237;-88
2022/03/01 01:48:18;;;;;;;3.93;3.63;;;-0.80;99.90;;;;;;5035536;28;20248;-88
2022/03/01 01:50:47;;;;;;;3.77;3.47;;;-0.90;99.90;;;;;;5034896;28;20268;-88
2022/03/01 01:53:16;;;;;;;4.33;3.50;;;-0.90;99.90;;;;;;5035455;28;20206;-88
2022/03/01 01:55:46;;;;;;;6.57;3.97;;;-0.90;99.90;;;;;;5035265;28;20207;-88
2022/03/01 01:58:16;;;;;;;3.53;3.17;;;-0.90;99.90;;;;;;5035276;28;20218;-89
2022/03/01 02:00:44;;;;;;;5.37;3.77;;;-0.90;99.90;;;;;;5034966;28;20210;-89
2022/03/01 02:03:13;;;;;;;4.97;4.00;;;-0.90;99.90;;;;;;5035024;28;20209;-88
2022/03/01 02:05:42;;;;;;;5.20;4.20;;;-0.90;99.90;;;;;;5035043;28;20217;-88
2022/03/01 02:08:10;;;;;;;7.20;3.60;;;-0.90;99.90;;;;;;5035074;28;20199;-88
2022/03/01 02:10:39;;;;;;;4.63;4.07;;;-0.90;99.90;;;;;;5035097;28;20206;-89
2022/03/01 02:13:08;;;;;;;3.67;3.27;;;-0.90;99.90;;;;;;5034962;28;20218;-89
2022/03/01 02:15:37;;;;;;;3.80;3.40;;;-0.90;99.90;;;;;;5035811;28;20195;-89
2022/03/01 02:18:06;;;;;;;11.07;4.27;;;-1.00;99.90;;;;;;5034653;28;20272;-88
2022/03/01 02:20:36;;;;;;;3.93;3.63;;;-0.90;99.90;;;;;;5034837;28;20206;-89
2022/03/01 02:23:04;;;;;;;5.93;3.90;;;-0.90;99.90;;;;;;5034859;28;20223;-89
2022/03/01 02:25:33;;;;;;;4.23;3.47;;;-1.00;99.90;;;;;;5034920;28;20317;-91
2022/03/01 02:28:01;;;;;;;3.67;3.37;;;-0.90;99.90;;;;;;5035632;28;20202;-88
2022/03/01 02:30:32;;;;;;;3.63;3.33;;;-1.00;99.90;;;;;;5034975;28;20199;-89
2022/03/01 02:33:01;;;;;;;4.00;3.37;;;-0.90;99.90;;;;;;5034542;28;20230;-89
2022/03/01 02:35:29;;;;;;;4.83;4.33;;;-1.00;99.90;;;;;;5034466;28;20279;-88
2022/03/01 02:37:59;;;;;;;4.60;4.20;;;-1.00;99.90;;;;;;5034183;28;20253;-89
2022/03/01 02:40:28;;;;;;;4.50;3.73;;;-0.90;99.90;;;;;;5034701;28;20198;-88
2022/03/01 02:42:56;;;;;;;5.93;3.87;;;-0.90;99.90;;;;;;5034461;28;20223;-89
2022/03/01 02:45:25;;;;;;;3.63;3.33;;;-0.90;99.90;;;;;;5034612;28;20210;-89
2022/03/01 02:47:53;;;;;;;4.03;3.40;;;-0.90;99.90;;;;;;5034247;28;20198;-88
2022/03/01 02:50:22;;;;;;;3.80;3.40;;;-0.90;99.90;;;;;;5034166;28;20206;-89
2022/03/01 02:52:50;;;;;;;4.13;3.73;;;-0.90;99.90;;;;;;5034101;28;20240;-89
2022/03/01 02:55:20;;;;;;;3.70;3.40;;;-0.90;99.90;;;;;;5033859;28;20252;-88
2022/03/01 02:57:49;;;;;;;4.27;3.63;;;-0.90;99.90;;;;;;5033945;28;20246;-89
2022/03/01 03:00:17;;;;;;;3.67;3.33;;;-0.90;99.90;;;;;;5034163;28;20206;-89
2022/03/01 03:02:46;;;;;;;3.97;3.60;;;-1.00;99.90;;;;;;5034141;28;20230;-89
2022/03/01 03:05:15;;;;;;;5.10;3.63;;;-1.00;99.90;;;;;;5033900;28;20233;-89
2022/03/01 03:07:44;;;;;;;4.40;3.67;;;-1.00;99.90;;;;;;5034008;28;20206;-89
2022/03/01 03:10:13;;;;;;;3.07;2.83;;;-1.10;99.90;;;;;;5034086;28;20260;-88
2022/03/01 03:12:45;;;;;;;3.80;3.50;;;-1.00;99.90;;;;;;5034068;28;20230;-89
2022/03/01 03:15:14;;;;;;;5.17;3.80;;;-1.10;99.90;;;;;;5033998;28;20224;-88
2022/03/01 03:17:45;;;;;;;4.90;3.80;;;-1.10;99.90;;;;;;5034103;28;20218;-88
2022/03/01 03:20:13;;;;;;;4.80;4.30;;;-1.00;99.90;;;;;;5033898;28;20252;-89
2022/03/01 03:22:42;;;;;;;8.83;4.17;;;-1.10;99.90;;;;;;5033783;28;20307;-89
2022/03/01 03:25:10;;;;;;;5.87;3.97;;;-1.10;99.90;;;;;;5033728;28;20249;-90
2022/03/01 03:27:39;;;;;;;3.97;3.63;;;-1.10;99.90;;;;;;5033584;28;20199;-88
2022/03/01 03:30:11;;;;;;;14.57;4.03;;;-1.10;99.90;;;;;;5033097;28;20248;-89
2022/03/01 03:32:40;;;;;;;13.80;3.93;;;-1.10;99.90;;;;;;5033639;28;20230;-88
2022/03/01 03:35:09;;;;;;;3.93;3.63;;;-1.10;99.90;;;;;;5033948;28;20253;-89
2022/03/01 03:37:38;;;;;;;8.00;4.03;;;-1.10;99.90;;;;;;5033496;28;20214;-89
2022/03/01 03:40:08;;;;;;;5.07;4.07;;;-1.10;99.90;;;;;;5033002;28;20206;-89
2022/03/01 03:42:36;;;;;;;6.30;3.60;;;-1.10;99.90;;;;;;5033225;28;20234;-89
2022/03/01 03:45:09;;;;;;;5.77;4.43;;;-1.10;99.90;;;;;;5033241;28;20210;-89
2022/03/01 03:47:38;;;;;;;4.40;4.00;;;-1.10;99.90;;;;;;5033471;28;20252;-88
2022/03/01 03:50:09;;;;;;;3.87;3.40;;;-1.10;99.90;;;;;;5032885;28;20203;-89
2022/03/01 03:52:38;;;;;;;5.27;4.10;;;-1.10;99.90;;;;;;5032962;28;20230;-89
2022/03/01 03:55:09;;;;;;;3.67;3.33;;;-1.10;99.90;;;;;;5033062;28;20256;-89
2022/03/01 03:57:40;;;;;;;5.03;3.93;;;-1.10;99.90;;;;;;5033072;28;20234;-88
2022/03/01 04:00:16;;;;;;;6.67;4.33;;;-1.10;99.90;;;;;;5032797;28;20213;-90
2022/03/01 04:02:47;;;;;;;7.83;3.77;;;-1.10;99.90;;;;;;5033520;28;20230;-88
2022/03/01 04:05:16;;;;;;;3.70;3.37;;;-1.10;99.90;;;;;;5033246;28;20202;-89
2022/03/01 04:07:47;;;;;;;5.73;3.67;;;-1.10;99.90;;;;;;5032762;28;20194;-88
2022/03/01 04:10:16;;;;;;;4.83;3.80;;;-1.10;99.90;;;;;;5032539;28;20202;-89
2022/03/01 04:12:44;;;;;;;3.63;3.33;;;-1.10;99.90;;;;;;5033177;28;20234;-89
2022/03/01 04:15:14;;;;;;;4.23;3.70;;;-1.10;99.90;;;;;;5032764;28;20198;-89
2022/03/01 04:17:43;;;;;;;4.27;3.80;;;-1.10;99.90;;;;;;5032352;28;20257;-88
2022/03/01 04:20:12;;;;;;;4.13;3.73;;;-1.10;99.90;;;;;;5032712;28;20205;-88
2022/03/01 04:22:41;;;;;;;6.50;4.27;;;-1.10;99.90;;;;;;5032640;28;20233;-88
2022/03/01 04:25:10;;;;;;;5.10;4.07;;;-1.20;99.90;;;;;;5032504;28;20225;-89
2022/03/01 04:27:40;;;;;;;3.93;3.57;;;-1.20;99.90;;;;;;5032745;28;20207;-89
2022/03/01 04:30:11;;;;;;;4.50;3.27;;;-1.20;99.90;;;;;;5032138;28;20210;-88
2022/03/01 04:32:41;;;;;;;4.17;3.77;;;-1.20;99.90;;;;;;5032476;28;20230;-89
2022/03/01 04:35:11;;;;;;;3.90;3.60;;;-1.20;99.90;;;;;;5032481;28;20210;-89
2022/03/01 04:37:42;;;;;;;3.90;3.43;;;-1.20;99.90;;;;;;5032467;28;20202;-89
2022/03/01 04:40:13;;;;;;;8.53;3.90;;;-1.20;99.90;;;;;;5032598;28;20206;-89
2022/03/01 04:42:41;;;;;;;5.13;4.30;;;-1.20;99.90;;;;;;5032210;28;20222;-89
2022/03/01 04:45:11;;;;;;;5.53;4.57;;;-1.20;99.90;;;;;;5032132;28;20217;-89
2022/03/01 04:47:41;;;;;;;3.37;3.07;;;-1.30;99.90;;;;;;5032435;28;20229;-89
2022/03/01 04:50:12;;;;;;;4.53;3.70;;;-1.30;99.90;;;;;;5031874;28;20209;-89
2022/03/01 04:52:40;;;;;;;4.73;4.30;;;-1.30;99.90;;;;;;5032489;28;20230;-88
2022/03/01 04:55:10;;;;;;;4.70;4.03;;;-1.40;99.90;;;;;;5032419;28;20206;-89
2022/03/01 04:57:38;;;;;;;4.10;3.70;;;-1.40;99.90;;;;;;5032708;28;20272;-89
2022/03/01 05:00:10;;;;;;;8.63;4.37;;;-1.40;99.90;;;;;;5031951;28;20226;-88
2022/03/01 05:02:42;;;;;;;5.30;3.60;;;-1.40;99.90;;;;;;5032203;28;20241;-88
2022/03/01 05:05:12;;;;;;;6.70;4.03;;;-1.40;99.90;;;;;;5032322;28;20293;-88
2022/03/01 05:07:41;;;;;;;5.27;3.87;;;-1.40;99.90;;;;;;5032028;28;20203;-88
2022/03/01 05:10:11;;;;;;;4.63;4.23;;;-1.40;99.90;;;;;;5031882;28;20210;-89
2022/03/01 05:12:44;;;;;;;4.53;4.10;;;-1.40;99.90;;;;;;5031992;28;20233;-89
2022/03/01 05:15:13;;;;;;;5.30;4.17;;;-1.40;99.90;;;;;;5032060;28;20210;-88
2022/03/01 05:17:44;;;;;;;5.53;4.10;;;-1.40;99.90;;;;;;5032433;28;20199;-89
2022/03/01 05:20:14;;;;;;;11.67;4.13;;;-1.40;99.90;;;;;;5035890;28;20242;-89
2022/03/01 05:22:43;;;;;;;5.73;4.03;;;-1.40;99.90;;;;;;5035939;28;20260;-88
2022/03/01 05:25:19;;;;;;;6.97;4.67;;;-1.40;99.90;;;;;;5035850;28;20206;-89
2022/03/01 05:27:49;;;;;;;3.40;3.10;;;-1.40;99.90;;;;;;5036049;28;20268;-88
2022/03/01 05:30:19;;;;;;;9.03;4.40;;;-1.40;99.90;;;;;;5038984;28;20226;-90
2022/03/01 05:32:51;;;;;;;4.90;3.50;;;-1.40;99.90;;;;;;5038970;28;20222;-88
2022/03/01 05:35:23;;;;;;;5.20;4.03;;;-1.40;99.90;;;;;;5040413;28;20218;-88
2022/03/01 05:37:53;;;;;;;5.87;4.73;;;-1.40;99.90;;;;;;5040422;28;20233;-88
2022/03/01 05:40:24;;;;;;;4.73;4.23;;;-1.40;99.90;;;;;;5037875;28;20268;-88
2022/03/01 05:42:53;;;;;;;5.37;4.43;;;-1.40;99.90;;;;;;5037265;28;20288;-88
2022/03/01 05:45:22;;;;;;;8.17;4.40;;;-1.40;99.90;;;;;;5037793;28;20206;-88
2022/03/01 05:47:56;;;;;;;4.30;3.90;;;-1.40;99.90;;;;;;5040926;28;20202;-88
2022/03/01 05:50:26;;;;;;;4.60;4.20;;;-1.40;99.90;;;;;;5041648;28;20214;-89
2022/03/01 05:52:55;;;;;;;3.47;3.17;;;-1.40;99.90;;;;;;5038015;28;20234;-88
2022/03/01 05:55:23;;;;;;;4.80;4.30;;;-1.40;99.90;;;;;;5035670;28;20202;-88
2022/03/01 05:57:52;;;;;;;5.83;4.57;;;-1.40;99.90;;;;;;5035590;28;20210;-90
2022/03/01 06:00:22;;;;;;;6.43;4.30;;;-1.40;99.90;;;;;;5035266;28;20222;-91
2022/03/01 06:02:52;;;;;;;8.00;4.73;;;-1.40;99.90;;;;;;5035126;28;20230;-90
2022/03/01 06:05:26;;;;;;;5.67;4.70;;;-1.40;99.90;;;;;;5035462;28;20274;-89
2022/03/01 06:07:55;;;;;;;8.43;5.73;;;-1.40;99.90;;;;;;5035046;28;20211;-89
2022/03/01 06:10:24;;;;;;;5.23;4.47;;;-1.40;99.90;;;;;;5035086;28;20199;-89
2022/03/01 06:12:53;;;;;;;6.90;5.00;;;-1.40;99.90;;;;;;5035107;28;20230;-89
2022/03/01 06:15:22;;;;;;;5.30;4.80;;;-1.30;99.90;;;;;;5035015;28;20198;-89
2022/03/01 06:17:52;;;;;;;6.53;4.93;;;-1.30;99.90;;;;;;5035034;28;20293;-89
2022/03/01 06:20:20;;;;;;;6.00;4.43;;;-1.30;99.90;;;;;;5034781;28;20257;-89
2022/03/01 06:22:49;;;;;;;4.20;3.80;;;-1.30;99.90;;;;;;5034778;28;20230;-89
2022/03/01 06:25:21;;;;;;;7.77;4.93;;;-1.30;99.90;;;;;;5035114;28;20203;-91
2022/03/01 06:27:51;;;;;;;6.57;5.00;;;-1.20;99.90;;;;;;5035251;28;20209;-89
2022/03/01 06:30:20;;;;;;;4.10;3.47;;;-1.20;99.90;;;;;;5034618;28;20202;-88
2022/03/01 06:32:48;;;;;;;4.30;3.90;;;-1.20;99.90;;;;;;5034318;28;20226;-91
2022/03/01 06:35:18;;;;;;;5.40;4.90;;;-1.30;99.90;;;;;;5034861;28;20233;-91
2022/03/01 06:37:52;;;;;;;5.17;4.40;;;-1.30;99.90;;;;;;5035458;28;20285;-91
2022/03/01 06:40:21;;;;;;;4.90;3.73;;;-1.30;99.90;;;;;;5034435;28;20222;-91
2022/03/01 06:42:49;;;;;;;4.87;3.90;;;-1.30;99.90;;;;;;5034697;28;20233;-90
2022/03/01 06:45:19;;;;;;;5.23;4.60;;;-1.30;99.90;;;;;;5034462;28;20214;-91
2022/03/01 06:47:48;;;;;;;5.00;4.50;;;-1.20;99.90;;;;;;5034402;28;20215;-91
2022/03/01 06:50:17;;;;;;;5.20;4.70;;;-1.20;99.90;;;;;;5034457;28;20199;-91
2022/03/01 06:52:46;;;;;;;11.70;5.00;;;-1.20;99.90;;;;;;5034562;28;20557;-91
2022/03/01 06:55:15;;;;;;;5.97;4.93;;;-1.20;99.90;;;;;;5034310;28;20207;-91
2022/03/01 06:57:44;;;;;;;5.57;4.90;;;-1.10;99.90;;;;;;5034065;28;20214;-91
2022/03/01 07:00:14;;;;;;;7.33;4.77;;;-1.10;99.90;;;;;;5033966;28;20257;-89
2022/03/01 07:02:43;;;;;;;6.10;4.80;;;-1.00;99.90;;;;;;5034194;28;20229;-89
2022/03/01 07:05:14;;;;;;;5.53;4.93;;;-0.90;99.90;;;;;;5034221;28;20230;-89
2022/03/01 07:07:44;;;;;;;6.87;5.30;;;-0.90;99.90;;;;;;5034181;28;20210;-89
2022/03/01 07:10:14;;;;;;;6.70;4.60;;;-0.80;99.90;;;;;;5033917;28;20206;-89
2022/03/01 07:12:44;;;;;;;11.00;6.20;;;-0.70;99.90;;;;;;5034183;28;20246;-89
2022/03/01 07:15:13;;;;;;;6.67;4.87;;;-0.70;99.90;;;;;;5034007;28;20203;-89
2022/03/01 07:17:45;;;;;;;5.00;4.60;;;-0.60;99.90;;;;;;5034304;28;20210;-89
2022/03/01 07:20:14;;;;;;;5.77;5.17;;;-0.60;99.90;;;;;;5034272;28;20230;-89
2022/03/01 07:22:44;;;;;;;11.07;5.30;;;-0.60;99.90;;;;;;5033804;28;20226;-89
2022/03/01 07:25:14;;;;;;;7.23;5.73;;;-0.50;99.90;;;;;;5033744;28;20210;-89
2022/03/01 07:27:49;;;;;;;5.77;5.07;;;-0.50;99.90;;;;;;5033748;28;20218;-89
2022/03/01 07:30:18;;;;;;;6.30;4.90;;;-0.40;99.90;;;;;;5033661;28;20205;-89
2022/03/01 07:32:47;;;;;;;5.33;4.83;;;-0.40;99.90;;;;;;5033443;28;20232;-89
2022/03/01 07:35:16;;;;;;;5.30;4.77;;;-0.30;99.90;;;;;;5033447;28;20264;-89
2022/03/01 07:37:46;;;;;;;8.53;6.47;;;-0.30;99.90;;;;;;5033522;28;20298;-89
2022/03/01 07:40:18;;;;;;;5.27;4.73;;;-0.20;99.90;;;;;;5033097;28;20301;-89
2022/03/01 07:42:48;;;;;;;4.87;4.40;;;-0.20;99.90;;;;;;5033386;28;20327;-89
2022/03/01 07:45:17;;;;;;;6.83;5.03;;;0.00;99.90;;;;;;5034590;28;20256;-88
2022/03/01 07:47:46;;;;;;;9.03;6.10;;;0.00;99.90;;;;;;5033625;28;20202;-88
2022/03/01 07:50:15;;;;;;;8.23;6.10;;;0.10;99.90;;;;;;5033613;28;20229;-88
2022/03/01 07:52:45;;;;;;;6.27;5.67;;;0.20;99.90;;;;;;5033071;28;20250;-88
2022/03/01 07:55:13;;;;;;;6.87;6.00;;;0.30;99.90;;;;;;5032982;28;20226;-89
2022/03/01 07:57:42;;;;;;;5.67;5.17;;;0.40;99.90;;;;;;5033505;28;20244;-88
2022/03/01 08:00:13;;;;;;;10.17;5.87;;;0.40;99.90;;;;;;5034507;28;20222;-89
2022/03/01 08:02:42;;;;;;;7.33;6.07;;;0.50;99.90;;;;;;5032890;28;20277;-88
2022/03/01 08:05:12;;;;;;;8.40;6.07;;;0.50;99.90;;;;;;5033163;28;20206;-89
2022/03/01 08:07:52;;;;;;;6.83;5.87;;;0.60;99.90;;;;;;5033011;28;20214;-88
2022/03/01 08:10:20;;;;;;;8.67;6.40;;;0.60;99.90;;;;;;5032775;28;20228;-89
2022/03/01 08:12:48;;;;;;;6.53;5.40;;;0.80;99.90;;;;;;5033406;28;20250;-89
2022/03/01 08:15:17;;;;;;;8.23;6.20;;;0.80;99.90;;;;;;5033449;28;20202;-88
2022/03/01 08:17:50;;;;;;;8.73;6.63;;;0.90;99.90;;;;;;5036422;28;20257;-89
2022/03/01 08:20:18;;;;;;;6.73;6.13;;;0.90;99.90;;;;;;5033128;28;20215;-88
2022/03/01 08:22:47;;;;;;;5.97;5.40;;;1.00;99.90;;;;;;5032641;28;20254;-89
2022/03/01 08:25:17;;;;;;;10.00;6.17;;;1.10;99.90;;;;;;5033413;28;20253;-89
2022/03/01 08:27:46;;;;;;;12.93;6.57;;;1.30;99.90;;;;;;5032799;28;20256;-88
2022/03/01 08:30:14;;;;;;;8.10;5.57;;;1.30;99.90;;;;;;5032605;28;20321;-89
2022/03/01 08:32:43;;;;;;;8.80;5.90;;;1.30;99.90;;;;;;5032392;28;20226;-88
2022/03/01 08:35:11;;;;;;;5.73;5.13;;;1.40;99.90;;;;;;5032283;28;20225;-89
2022/03/01 08:37:40;;;;;;;9.43;6.73;;;1.60;99.90;;;;;;5032506;28;20269;-89
2022/03/01 08:40:12;;;;;;;7.07;6.20;;;1.70;99.90;;;;;;5032651;28;20218;-89
2022/03/01 08:42:43;;;;;;;6.27;5.67;;;1.70;99.90;;;;;;5032492;28;20230;-90
2022/03/01 08:45:11;;;;;;;7.53;5.97;;;1.90;99.90;;;;;;5032542;28;20214;-89
2022/03/01 08:47:41;;;;;;;13.33;6.33;;;2.00;99.90;;;;;;5032452;28;20202;-90
2022/03/01 08:50:11;;;;;;;6.70;5.30;;;2.00;99.90;;;;;;5032252;28;20237;-89
2022/03/01 08:53:00;;;;;;;12.07;6.80;;;2.10;99.90;;;;;;5033549;28;20226;-89
2022/03/01 08:55:29;;;;;;;7.50;6.73;;;2.30;99.90;;;;;;5036978;28;20272;-89
2022/03/01 08:58:00;;;;;;;6.40;5.40;;;2.40;99.90;;;;;;5036271;28;20222;-89
2022/03/01 09:00:29;;;;;;;7.37;6.13;;;2.50;99.90;;;;;;5036647;28;20222;-89
2022/03/01 09:02:58;;;;;;;8.00;6.23;;;2.50;99.90;;;;;;5036158;28;20234;-89
2022/03/01 09:05:27;;;;;;;5.60;5.00;;;2.60;99.90;;;;;;5036783;28;20210;-89
2022/03/01 09:07:56;;;;;;;8.20;6.00;;;2.60;99.90;;;;;;5036428;28;20210;-89
2022/03/01 09:10:26;;;;;;;5.97;5.37;;;2.80;99.90;;;;;;5035983;28;20259;-89
2022/03/01 09:12:57;;;;;;;6.80;6.10;;;2.90;99.90;;;;;;5036333;28;20230;-90
2022/03/01 09:15:32;;;;;;;9.93;5.93;;;3.10;99.90;;;;;;5036288;28;20206;-89
2022/03/01 09:18:01;;;;;;;8.20;5.03;;;3.40;99.90;;;;;;5036064;28;20217;-88
2022/03/01 09:20:30;;;;;;;5.60;5.10;;;3.50;99.90;;;;;;5036085;28;20222;-88
2022/03/01 09:22:59;;;;;;;9.00;6.00;;;3.70;99.90;;;;;;5036134;28;20314;-89
2022/03/01 09:25:30;;;;;;;7.60;5.45;;;3.90;99.90;;;;;;5036027;28;20217;-89
2022/03/01 09:27:59;;;;;;;5.35;4.85;;;4.10;99.90;;;;;;5035884;28;20205;-89
2022/03/01 09:30:32;;;;;;;7.18;5.45;;;4.40;99.90;;;;;;5035556;28;20207;-89
2022/03/01 09:33:01;;;;;;;6.63;5.53;;;4.90;99.90;;;;;;5035946;28;20306;-89
2022/03/01 09:35:32;;;;;;;6.93;6.18;;;5.20;99.30;;;;;;5035839;28;20272;-89
2022/03/01 09:38:00;;;;;;;6.25;4.95;;;5.90;97.20;;;;;;5035542;28;20214;-89
2022/03/01 09:40:29;;;;;;;5.43;4.95;;;6.40;96.10;;;;;;5035539;28;20199;-89
2022/03/01 09:42:57;;;;;;;7.28;5.88;;;7.30;95.30;;;;;;5035635;28;20222;-89
2022/03/01 09:45:26;;;;;;;6.20;4.68;;;8.20;92.40;;;;;;5035777;28;20199;-90
2022/03/01 09:47:56;;;;;;;6.18;5.57;;;8.80;88.60;;;;;;5035769;28;20308;-89
2022/03/01 09:50:28;;;;;;;4.82;4.43;;;9.70;84.90;;;;;;5035219;28;20261;-89
2022/03/01 09:52:58;;;;;;;5.70;4.32;;;10.10;76.50;;;;;;5035128;28;20222;-89
2022/03/01 09:55:26;;;;;;;6.32;5.30;;;9.40;76.70;;;;;;5035470;28;20248;-89
2022/03/01 09:57:56;;;;;;;5.97;5.30;;;9.50;75.40;;;;;;5035967;28;20242;-89
2022/03/01 10:00:25;;;;;;;4.90;4.32;;;9.40;75.30;;;;;;5035330;28;20208;-89
2022/03/01 10:02:58;;;;;;;6.43;4.53;;;9.40;75.60;;;;;;5034869;28;20230;-89
2022/03/01 10:05:35;;;;;;;5.78;4.40;;;9.40;75.10;;;;;;5035072;28;20206;-89
2022/03/01 10:08:12;;;;;;;5.68;4.68;;;8.50;74.10;;;;;;5035072;28;20201;-89
2022/03/01 10:10:43;;;;;;;7.15;5.63;;;8.20;74.10;;;;;;5035379;28;20210;-88
2022/03/01 10:13:14;;;;;;;8.55;4.35;;;7.90;76.10;;;;;;5036178;28;20210;-89
2022/03/01 10:15:43;;;;;;;5.28;4.78;;;7.80;76.30;;;;;;5035994;28;20198;-89
2022/03/01 10:18:15;;;;;;;5.35;4.78;;;7.30;76.00;;;;;;5035878;28;20206;-89
2022/03/01 10:20:45;;;;;;;8.75;5.25;;;6.90;77.60;;;;;;5035185;28;20264;-89
2022/03/01 10:23:21;;;;;;;8.50;5.97;;;6.70;78.30;;;;;;5036020;28;20229;-88
2022/03/01 10:25:49;;;;;;;4.68;4.28;;;6.40;78.60;;;;;;5035750;28;20202;-88
2022/03/01 10:28:18;;;;;;;17.80;4.45;;;6.10;79.20;;;;;;5035248;28;20198;-89
2022/03/01 10:30:46;;;;;;;5.18;4.68;;;6.10;79.90;;;;;;5034853;28;20213;-88
2022/03/01 10:33:18;;;;;;;6.82;4.45;;;6.10;80.70;;;;;;5034619;28;20213;-88
2022/03/01 10:35:58;;;;;;;5.32;4.68;;;6.40;81.90;;;;;;5034734;28;20210;-88
2022/03/01 10:38:27;;;;;;;5.55;5.05;;;6.80;80.10;;;;;;5035051;28;20209;-89
2022/03/01 10:40:58;;;;;;;7.00;4.72;;;7.00;79.40;;;;;;5034095;28;20202;-88
2022/03/01 10:43:28;;;;;;;5.57;5.00;;;7.40;79.70;;;;;;5034734;28;20272;-88
2022/03/01 10:45:59;;;;;;;4.88;4.40;;;7.80;78.30;;;;;;5034606;28;20203;-88
2022/03/01 10:48:34;;;;;;;9.15;6.32;;;8.60;77.40;;;;;;5034461;28;20206;-87
2022/03/01 10:51:05;;;;;;;6.82;5.72;;;9.40;75.90;;;;;;5034653;28;20218;-88
2022/03/01 10:53:35;;;;;;;9.15;5.93;;;10.00;74.60;;;;;;5034104;28;20213;-88
2022/03/01 10:56:04;;;;;;;5.85;4.90;;;10.30;69.00;;;;;;5034389;28;20225;-88
2022/03/01 10:58:35;;;;;;;5.60;4.97;;;10.60;69.80;;;;;;5034133;28;20265;-88
2022/03/01 11:01:04;;;;;;;5.38;4.35;;;10.50;68.10;;;;;;5034051;28;20218;-88
2022/03/01 11:03:35;;;;;;;7.75;5.35;;;10.50;68.20;;;;;;5034162;28;20266;-88
2022/03/01 11:06:05;;;;;;;4.55;3.88;;;10.50;68.30;;;;;;5034201;28;20286;-88
2022/03/01 11:08:36;;;;;;;4.18;3.88;;;11.00;66.40;;;;;;5034120;28;20210;-88
2022/03/01 11:11:07;;;;;;;5.57;4.75;;;11.50;65.40;;;;;;5033848;28;20230;-89
2022/03/01 11:13:39;;;;;;;5.63;5.05;;;11.90;64.40;;;;;;5034118;28;20222;-89
2022/03/01 11:16:23;;;;;;;7.68;4.43;;;11.70;64.30;;;;;;5033510;28;20209;-89
2022/03/01 11:19:01;;;;;;;8.85;5.50;;;11.70;63.50;;;;;;5033867;28;20217;-89
2022/03/01 11:21:30;;;;;;;5.70;5.05;;;11.70;62.50;;;;;;5033585;28;20237;-89
2022/03/01 11:23:59;;;;;;;6.30;4.78;;;11.90;62.80;;;;;;5033860;28;20218;-89
2022/03/01 11:26:36;;;;;;;6.10;5.50;;;12.40;62.10;;;;;;5034033;28;20200;-89
2022/03/01 11:29:10;;;;;;;6.07;5.47;;;12.60;61.50;;;;;;5033958;28;20206;-89
2022/03/01 11:31:40;;;;;;;9.95;6.38;;;13.00;60.50;;;;;;5033881;28;20245;-90
2022/03/01 11:34:16;;;;;;;6.38;5.43;;;13.10;59.70;;;;;;5034761;28;20206;-89
2022/03/01 11:36:50;;;;;;;7.10;5.80;;;13.20;58.10;;;;;;5037900;28;20294;-89
2022/03/01 11:39:26;;;;;;;6.00;5.43;;;13.30;57.10;;;;;;5036873;28;20210;-89
2022/03/01 11:42:04;;;;;;;6.13;5.60;;;13.00;57.00;;;;;;5036545;28;20222;-89
2022/03/01 11:44:34;;;;;;;7.15;5.43;;;12.60;58.40;;;;;;5034274;28;20314;-89
2022/03/01 11:47:07;;;;;;;7.00;5.78;;;13.00;57.60;;;;;;5033809;28;20210;-90
2022/03/01 11:49:39;;;;;;;8.40;6.22;;;13.20;57.90;;;;;;5034927;28;20215;-88
2022/03/01 11:52:19;;;;;;;8.27;6.40;;;12.90;58.30;;;;;;5034920;28;20248;-87
2022/03/01 11:54:49;;;;;;;8.73;6.45;;;12.70;57.50;;;;;;5036246;28;20202;-88
2022/03/01 11:57:23;;;;;;;10.13;6.50;;;12.80;58.10;;;;;;5033176;28;20210;-81
2022/03/01 11:59:53;;;;;;;7.28;6.57;;;12.90;57.60;;;;;;5033100;28;20213;-81
2022/03/01 12:02:25;;;;;;;6.72;6.15;;;13.20;57.90;;;;;;5032773;28;20238;-81
2022/03/01 12:04:57;;;;;;;7.13;5.45;;;13.00;57.30;;;;;;5032013;28;20213;-81
2022/03/01 12:07:32;;;;;;;7.07;6.30;;;13.10;58.60;;;;;;5032938;28;20211;-81
2022/03/01 12:10:01;;;;;;;12.63;5.95;;;12.90;57.40;;;;;;5033110;28;20206;-81
2022/03/01 12:12:35;;;;;;;6.75;6.10;;;12.90;58.10;;;;;;5032935;28;20222;-81
2022/03/01 12:15:06;;;;;;;13.40;5.78;;;13.30;56.90;;;;;;5032919;28;20206;-81
2022/03/01 12:17:46;;;;;;;6.20;5.63;;;13.30;56.20;;;;;;5032769;28;20202;-81
2022/03/01 12:20:18;;;;;;;5.50;5.03;;;13.80;55.30;;;;;;5032566;28;20214;-81
2022/03/01 12:22:54;;;;;;;8.82;6.57;;;13.70;55.30;;;;;;5032860;28;20288;-81
2022/03/01 12:25:23;;;;;;;6.18;5.57;;;14.00;54.90;;;;;;5032727;28;20210;-81
2022/03/01 12:27:52;;;;;;;7.60;6.50;;;13.90;55.30;;;;;;5032155;28;20213;-81
2022/03/01 12:30:23;;;;;;;7.43;6.63;;;13.90;53.70;;;;;;5032184;28;20244;-81
2022/03/01 12:32:53;;;;;;;7.70;6.88;;;13.30;55.00;;;;;;5032749;28;20234;-81
2022/03/01 12:35:25;;;;;;;9.90;7.85;;;13.00;55.80;;;;;;5032581;28;20301;-81
2022/03/01 12:37:53;;;;;;;6.35;5.50;;;13.10;55.60;;;;;;5032779;28;20210;-81
2022/03/01 12:40:30;;;;;;;10.48;7.93;;;13.30;54.90;;;;;;5031908;28;20294;-80
2022/03/01 12:43:03;;;;;;;8.35;6.43;;;13.50;54.80;;;;;;5032108;28;20291;-81
2022/03/01 12:45:33;;;;;;;10.00;7.53;;;13.30;55.00;;;;;;5032235;28;20202;-80
2022/03/01 12:48:07;;;;;;;9.38;7.03;;;13.30;55.80;;;;;;5032418;28;20212;-80
2022/03/01 12:50:47;;;;;;;7.15;6.40;;;12.90;53.00;;;;;;5031761;28;20266;-80
2022/03/01 12:53:17;;;;;;;16.75;7.72;;;12.80;53.50;;;;;;5032144;28;20214;-80
2022/03/01 12:55:49;;;;;;;8.88;6.63;;;12.70;52.80;;;;;;5032250;28;20202;-81
2022/03/01 12:58:19;;;;;;;5.97;5.47;;;12.70;52.90;;;;;;5032593;28;20214;-80
2022/03/01 13:00:49;;;;;;;8.68;7.53;;;12.80;53.40;;;;;;5032530;28;20206;-80
2022/03/01 13:03:29;;;;;;;5.85;5.35;;;13.00;54.90;;;;;;5031964;28;20222;-80